Terminal Aerodrome Forecast
Issued by NWS Detroit/Pontiac, MI

Home | Current Version | Previous Version | Text Only | Print | Product List | Glossary On
Versions: 1 2 3 4 5 6 7 8 9 10 11 12 13 14 15 16 17 18 19 20 21 22 23 24 25 26 27 28 29
776
FTUS43 KDTX 272032 AAA
TAFDTW
TAF AMD
KDTW 272032Z 2721/2824 16010KT P6SM BKN050
     FM272200 14005KT P6SM BKN045
     FM280700 12003KT 5SM BR SCT045 BKN100
     FM281300 14010KT 2SM -SHRA BR OVC014
     FM281700 17010KT 3SM -DZ BR OVC007=

USA.gov is the U.S. government's official web portal to all federal, state and local government web resources and services.